Time;durP1;ratioP1;P1;durP2;ratioP2;P2;SDS_P1;SDS_P2;PMS_P1;PMS_P2;Temp;Humidity;BMP_temperature;BMP_pressure;BME280_temperature;BME280_humidity;BME280_pressure;Samples;Min_cycle;Max_cycle;Signal;HPM_P1;HPM_P2
2022/09/02 00:00:44;;;;;;;0.85;0.85;;;12.30;99.90;;;;;;6236551;28;20272;-67
2022/09/02 00:03:53;;;;;;;0.70;0.70;;;12.20;99.90;;;;;;6235894;28;20301;-68
2022/09/02 00:06:58;;;;;;;0.90;0.90;;;12.30;99.90;;;;;;6236360;28;20273;-68
2022/09/02 00:10:05;;;;;;;1.02;0.90;;;12.30;99.90;;;;;;6248747;28;20309;-68
2022/09/02 00:13:18;;;;;;;0.80;0.80;;;12.30;99.90;;;;;;6235854;28;20300;-68
2022/09/02 00:16:24;;;;;;;1.45;0.80;;;12.30;99.90;;;;;;6234927;28;20292;-68
2022/09/02 00:19:32;;;;;;;0.70;0.70;;;12.30;99.90;;;;;;6235542;28;20304;-68
2022/09/02 00:22:37;;;;;;;0.80;0.80;;;12.20;99.90;;;;;;6235885;28;20297;-68
2022/09/02 00:25:44;;;;;;;0.80;0.80;;;12.20;99.90;;;;;;6236335;28;20276;-67
2022/09/02 00:28:50;;;;;;;0.52;0.52;;;12.20;99.90;;;;;;6240837;28;20296;-68
2022/09/02 00:32:00;;;;;;;1.73;0.70;;;12.10;99.90;;;;;;6223641;28;20276;-69
2022/09/02 00:35:09;;;;;;;0.70;0.70;;;12.10;99.90;;;;;;6240609;28;20372;-69
2022/09/02 00:38:14;;;;;;;1.65;0.70;;;12.00;99.90;;;;;;6223041;28;20302;-69
2022/09/02 00:41:23;;;;;;;1.60;0.85;;;12.10;99.90;;;;;;6240502;28;20272;-69
2022/09/02 00:44:30;;;;;;;0.80;0.80;;;12.00;99.90;;;;;;6240112;28;20300;-69
2022/09/02 00:47:36;;;;;;;0.90;0.90;;;12.10;99.90;;;;;;6238508;28;20581;-69
2022/09/02 00:50:43;;;;;;;0.70;0.70;;;12.00;99.90;;;;;;6240326;28;20272;-69
2022/09/02 00:53:49;;;;;;;0.90;0.90;;;12.10;99.90;;;;;;6222528;28;20304;-68
2022/09/02 00:56:55;;;;;;;0.75;0.75;;;12.10;99.90;;;;;;6222942;28;20268;-69
2022/09/02 01:00:09;;;;;;;0.80;0.70;;;12.00;99.90;;;;;;6240113;28;20304;-69
2022/09/02 01:03:21;;;;;;;1.55;0.80;;;12.00;99.90;;;;;;6239650;28;20292;-69
2022/09/02 01:06:31;;;;;;;0.63;0.63;;;12.00;99.90;;;;;;6239838;28;20268;-67
2022/09/02 01:09:38;;;;;;;1.08;0.65;;;11.90;99.90;;;;;;6243580;28;20549;-67
2022/09/02 01:12:43;;;;;;;1.02;1.02;;;12.00;99.90;;;;;;6238020;28;20292;-67
2022/09/02 01:15:52;;;;;;;0.60;0.60;;;12.00;99.90;;;;;;6238678;28;20291;-67
2022/09/02 01:19:01;;;;;;;0.80;0.80;;;12.00;99.90;;;;;;6239663;28;20296;-68
2022/09/02 01:22:16;;;;;;;0.75;0.68;;;12.00;99.90;;;;;;6240041;28;20273;-67
2022/09/02 01:25:24;;;;;;;0.82;0.82;;;12.00;99.90;;;;;;6238462;28;20280;-68
2022/09/02 01:28:32;;;;;;;1.95;0.82;;;12.00;99.90;;;;;;6237725;28;20490;-67
2022/09/02 01:31:37;;;;;;;0.80;0.80;;;12.00;99.90;;;;;;6222019;28;20271;-68
2022/09/02 01:34:43;;;;;;;0.73;0.73;;;11.80;99.90;;;;;;6221540;28;20308;-68
2022/09/02 01:37:53;;;;;;;1.55;0.73;;;11.80;99.90;;;;;;6238618;28;20615;-68
2022/09/02 01:41:00;;;;;;;0.80;0.80;;;11.80;99.90;;;;;;6222166;28;20273;-68
2022/09/02 01:44:07;;;;;;;0.75;0.75;;;11.80;99.90;;;;;;6238660;28;20477;-69
2022/09/02 01:47:15;;;;;;;0.70;0.70;;;11.70;99.90;;;;;;6238768;28;20273;-68
2022/09/02 01:50:22;;;;;;;0.70;0.70;;;11.70;99.90;;;;;;6221380;28;20272;-68
2022/09/02 01:53:30;;;;;;;0.95;0.80;;;11.70;99.90;;;;;;6237488;28;20293;-68
2022/09/02 01:56:36;;;;;;;0.80;0.80;;;11.80;99.90;;;;;;6221203;28;20292;-68
2022/09/02 01:59:43;;;;;;;1.27;0.70;;;11.80;99.90;;;;;;6237224;28;20485;-68
2022/09/02 02:02:49;;;;;;;0.80;0.60;;;11.90;99.90;;;;;;6220836;28;20296;-68
2022/09/02 02:05:55;;;;;;;0.80;0.80;;;11.80;99.90;;;;;;6237533;28;20434;-68
2022/09/02 02:09:02;;;;;;;0.70;0.70;;;11.80;99.90;;;;;;6229284;28;20303;-68
2022/09/02 02:12:12;;;;;;;0.70;0.70;;;11.80;99.90;;;;;;6224478;28;20269;-68
2022/09/02 02:15:21;;;;;;;0.70;0.70;;;11.80;99.90;;;;;;6236607;28;20296;-68
2022/09/02 02:18:26;;;;;;;1.13;0.70;;;11.90;99.90;;;;;;6236956;28;20297;-68
2022/09/02 02:21:32;;;;;;;1.45;0.80;;;11.90;99.90;;;;;;6238297;28;20348;-68
2022/09/02 02:24:39;;;;;;;0.57;0.57;;;11.90;99.90;;;;;;6238021;28;20296;-68
2022/09/02 02:27:45;;;;;;;0.75;0.75;;;11.80;99.90;;;;;;6220512;28;20292;-68
2022/09/02 02:30:51;;;;;;;0.98;0.88;;;11.80;99.90;;;;;;6238286;28;20288;-68
2022/09/02 02:33:56;;;;;;;0.70;0.70;;;11.80;99.90;;;;;;6220255;28;20304;-68
2022/09/02 02:37:02;;;;;;;0.70;0.70;;;11.90;99.90;;;;;;6236746;28;20292;-68
2022/09/02 02:40:11;;;;;;;1.35;0.80;;;11.90;99.90;;;;;;6219616;28;20296;-68
2022/09/02 02:43:17;;;;;;;0.50;0.50;;;11.90;99.90;;;;;;6236412;28;20300;-68
2022/09/02 02:46:22;;;;;;;1.00;0.95;;;11.90;99.90;;;;;;6220178;28;20454;-68
2022/09/02 02:49:28;;;;;;;2.05;0.70;;;11.80;99.90;;;;;;6219010;28;20300;-68
2022/09/02 02:52:34;;;;;;;0.60;0.60;;;11.80;99.90;;;;;;6236858;28;20292;-68
2022/09/02 02:55:41;;;;;;;0.90;0.90;;;11.80;99.90;;;;;;6236581;28;20297;-68
2022/09/02 02:58:47;;;;;;;2.50;0.77;;;11.80;99.90;;;;;;6219576;28;20292;-69
2022/09/02 03:01:52;;;;;;;0.60;0.60;;;11.70;99.90;;;;;;6218295;28;20276;-68
2022/09/02 03:04:58;;;;;;;0.75;0.75;;;11.70;99.90;;;;;;6252182;28;20449;-68
2022/09/02 03:08:04;;;;;;;0.70;0.70;;;11.60;99.90;;;;;;6240536;28;20582;-69
2022/09/02 03:11:16;;;;;;;0.70;0.70;;;11.60;99.90;;;;;;6277170;28;20204;-68
2022/09/02 03:14:23;;;;;;;1.05;0.70;;;11.60;99.90;;;;;;6276999;28;20480;-68
2022/09/02 03:17:28;;;;;;;0.90;0.90;;;11.60;99.90;;;;;;6259827;28;20291;-68
2022/09/02 03:20:34;;;;;;;1.00;0.70;;;11.50;99.90;;;;;;6254460;28;20447;-68
2022/09/02 03:23:42;;;;;;;0.68;0.68;;;11.50;99.90;;;;;;6276695;28;20459;-68
2022/09/02 03:26:49;;;;;;;0.70;0.70;;;11.40;99.90;;;;;;6260663;28;20279;-68
2022/09/02 03:29:55;;;;;;;0.70;0.70;;;11.50;99.90;;;;;;6259567;28;20275;-69
2022/09/02 03:33:04;;;;;;;0.65;0.60;;;11.40;99.90;;;;;;6261280;28;20296;-68
2022/09/02 03:36:21;;;;;;;0.75;0.75;;;11.40;99.90;;;;;;6261239;28;20583;-68
2022/09/02 03:39:28;;;;;;;0.85;0.77;;;11.40;99.90;;;;;;6259457;28;20295;-68
2022/09/02 03:42:34;;;;;;;0.60;0.60;;;11.40;99.90;;;;;;6261192;28;20291;-68
2022/09/02 03:45:40;;;;;;;0.90;0.90;;;11.40;99.90;;;;;;6276361;28;20271;-68
2022/09/02 03:48:50;;;;;;;0.60;0.60;;;11.40;99.90;;;;;;6275977;28;20299;-68
2022/09/02 03:51:57;;;;;;;2.40;0.70;;;11.30;99.90;;;;;;6259611;28;20272;-68
2022/09/02 03:55:03;;;;;;;2.70;0.80;;;11.30;99.90;;;;;;6261213;28;20338;-68
2022/09/02 03:58:16;;;;;;;0.80;0.80;;;11.30;99.90;;;;;;6259289;28;20464;-68
2022/09/02 04:01:25;;;;;;;0.70;0.70;;;11.30;99.90;;;;;;6259211;28;20276;-68
2022/09/02 04:04:33;;;;;;;0.70;0.70;;;11.20;99.90;;;;;;6259350;28;20291;-68
2022/09/02 04:07:38;;;;;;;0.65;0.65;;;11.20;99.90;;;;;;6259023;28;20587;-68
2022/09/02 04:10:47;;;;;;;0.73;0.73;;;11.20;99.90;;;;;;6259352;28;20307;-68
2022/09/02 04:13:54;;;;;;;0.80;0.80;;;11.10;99.90;;;;;;6259269;28;20295;-68
2022/09/02 04:17:03;;;;;;;0.63;0.63;;;11.20;99.90;;;;;;6275413;28;20287;-68
2022/09/02 04:20:13;;;;;;;0.80;0.80;;;11.20;99.90;;;;;;6275939;28;20271;-68
2022/09/02 04:23:18;;;;;;;0.77;0.77;;;11.20;99.90;;;;;;6259401;28;20303;-68
2022/09/02 04:26:25;;;;;;;0.73;0.73;;;11.10;99.90;;;;;;6275817;28;20274;-68
2022/09/02 04:29:33;;;;;;;0.90;0.80;;;11.10;99.90;;;;;;6258666;28;20299;-68
2022/09/02 04:32:39;;;;;;;0.80;0.80;;;11.20;99.90;;;;;;6259717;28;20296;-68
2022/09/02 04:35:48;;;;;;;0.60;0.60;;;11.20;99.90;;;;;;6243279;28;20279;-68
2022/09/02 04:38:55;;;;;;;0.80;0.80;;;11.30;99.90;;;;;;6275073;28;20291;-68
2022/09/02 04:42:04;;;;;;;0.90;0.90;;;11.20;99.90;;;;;;6258680;28;20610;-69
2022/09/02 04:45:13;;;;;;;1.88;0.90;;;11.20;99.90;;;;;;6258263;28;20320;-67
2022/09/02 04:48:18;;;;;;;1.40;0.93;;;11.10;99.90;;;;;;6259994;28;20304;-68
2022/09/02 04:51:27;;;;;;;0.70;0.70;;;11.20;99.90;;;;;;6259304;28;20276;-68
2022/09/02 04:54:36;;;;;;;0.80;0.80;;;11.20;99.90;;;;;;6258931;28;20295;-68
2022/09/02 04:57:43;;;;;;;0.80;0.77;;;11.20;99.90;;;;;;6258721;28;20295;-68
2022/09/02 05:00:52;;;;;;;0.70;0.70;;;11.20;99.90;;;;;;6274925;28;20280;-68
2022/09/02 05:04:01;;;;;;;0.85;0.85;;;11.20;99.90;;;;;;6258477;28;20312;-68
2022/09/02 05:07:12;;;;;;;0.90;0.80;;;11.20;99.90;;;;;;6258219;28;22578;-69
2022/09/02 05:10:22;;;;;;;1.00;1.00;;;11.20;99.90;;;;;;6239137;28;20596;-69
2022/09/02 05:13:29;;;;;;;0.80;0.80;;;11.20;99.90;;;;;;6236735;28;20296;-69
2022/09/02 05:16:40;;;;;;;1.85;0.90;;;11.30;99.90;;;;;;6222765;28;20268;-67
2022/09/02 05:19:50;;;;;;;0.75;0.75;;;11.30;99.90;;;;;;6221726;28;20296;-69
2022/09/02 05:22:55;;;;;;;0.60;0.60;;;11.30;99.90;;;;;;6239617;28;20296;-69
2022/09/02 05:26:04;;;;;;;1.05;0.80;;;11.30;99.90;;;;;;6238625;28;20409;-69
2022/09/02 05:29:10;;;;;;;1.23;0.85;;;11.30;99.90;;;;;;6221874;28;20355;-69
2022/09/02 05:32:18;;;;;;;1.95;0.80;;;11.30;99.90;;;;;;6238079;28;20292;-69
2022/09/02 05:35:25;;;;;;;0.90;0.90;;;11.40;99.90;;;;;;6239610;28;20461;-69
2022/09/02 05:38:31;;;;;;;1.55;0.90;;;11.40;99.90;;;;;;6238044;28;20300;-69
2022/09/02 05:41:38;;;;;;;0.73;0.73;;;11.40;99.90;;;;;;6238104;28;20272;-67
2022/09/02 05:44:47;;;;;;;1.05;1.05;;;11.50;99.90;;;;;;6237207;28;20300;-68
2022/09/02 05:47:58;;;;;;;0.90;0.90;;;11.50;99.90;;;;;;6221081;28;20607;-68
2022/09/02 05:51:05;;;;;;;0.85;0.85;;;11.50;99.90;;;;;;6221403;28;20303;-68
2022/09/02 05:54:16;;;;;;;0.88;0.88;;;11.60;99.90;;;;;;6237263;28;20595;-68
2022/09/02 05:57:22;;;;;;;0.80;0.80;;;11.60;99.90;;;;;;6237089;28;20292;-68
2022/09/02 06:00:39;;;;;;;0.98;0.98;;;11.70;99.90;;;;;;6221212;28;20292;-68
2022/09/02 06:03:46;;;;;;;1.80;0.82;;;11.70;99.90;;;;;;6237000;28;20448;-68
2022/09/02 06:06:53;;;;;;;2.53;0.80;;;11.70;99.90;;;;;;6221058;28;20524;-69
2022/09/02 06:10:00;;;;;;;0.80;0.80;;;11.70;99.90;;;;;;6239840;28;20460;-68
2022/09/02 06:13:06;;;;;;;0.80;0.80;;;11.70;99.90;;;;;;6220531;28;20300;-70
2022/09/02 06:16:15;;;;;;;1.08;1.08;;;11.80;99.90;;;;;;6221366;28;20280;-68
2022/09/02 06:19:29;;;;;;;0.80;0.80;;;11.80;99.90;;;;;;6220261;28;20300;-68
2022/09/02 06:22:35;;;;;;;0.75;0.75;;;11.90;99.90;;;;;;6236634;28;20292;-68
2022/09/02 06:25:43;;;;;;;0.70;0.70;;;11.90;99.90;;;;;;6237186;28;20272;-68
2022/09/02 06:28:50;;;;;;;2.13;1.10;;;12.00;99.90;;;;;;6236214;28;20300;-69
2022/09/02 06:31:55;;;;;;;2.45;0.90;;;12.10;99.90;;;;;;6237551;28;20273;-67
2022/09/02 06:35:06;;;;;;;0.80;0.80;;;12.10;99.90;;;;;;6236724;28;20452;-68
2022/09/02 06:38:18;;;;;;;0.80;0.80;;;12.20;99.90;;;;;;6220899;28;20407;-68
2022/09/02 06:41:29;;;;;;;0.68;0.68;;;12.40;99.90;;;;;;6220757;28;20272;-67
2022/09/02 06:44:37;;;;;;;1.05;1.05;;;12.50;99.90;;;;;;6220211;28;20300;-68
2022/09/02 06:47:42;;;;;;;3.28;0.77;;;12.70;99.90;;;;;;6235936;28;20298;-68
2022/09/02 06:50:50;;;;;;;2.65;0.80;;;12.90;99.90;;;;;;6236647;28;20559;-68
2022/09/02 06:53:56;;;;;;;1.65;0.70;;;13.00;99.90;;;;;;6236092;28;20482;-69
2022/09/02 06:57:04;;;;;;;0.85;0.70;;;13.00;99.90;;;;;;6236052;28;20434;-68
2022/09/02 07:00:16;;;;;;;0.50;0.50;;;13.10;99.90;;;;;;6236468;28;20297;-68
2022/09/02 07:06:48;;;;;;;1.00;0.70;;;13.30;99.90;;;;;;6236135;28;20438;-68
2022/09/02 07:09:55;;;;;;;1.08;0.80;;;13.40;99.90;;;;;;6252021;28;20295;-68
2022/09/02 07:13:00;;;;;;;0.60;0.60;;;13.40;99.90;;;;;;6259663;28;20308;-68
2022/09/02 07:16:06;;;;;;;2.22;0.70;;;13.50;99.90;;;;;;6262127;28;20289;-68
2022/09/02 07:19:13;;;;;;;2.38;0.55;;;13.60;99.90;;;;;;6276174;28;20303;-68
2022/09/02 07:22:26;;;;;;;0.60;0.60;;;13.60;99.60;;;;;;6276458;28;20299;-68
2022/09/02 07:25:31;;;;;;;0.68;0.68;;;13.60;99.50;;;;;;6261307;28;20272;-68
2022/09/02 07:28:37;;;;;;;0.60;0.60;;;13.40;99.20;;;;;;6261086;28;20300;-69
2022/09/02 07:31:46;;;;;;;1.67;0.75;;;13.50;99.50;;;;;;6276878;28;20279;-68
2022/09/02 07:34:55;;;;;;;0.57;0.57;;;13.50;99.30;;;;;;6275182;28;20451;-68
2022/09/02 07:38:02;;;;;;;0.80;0.80;;;13.50;99.00;;;;;;6276192;28;20300;-67
2022/09/02 07:41:12;;;;;;;0.70;0.70;;;13.50;98.90;;;;;;6276414;28;20626;-67
2022/09/02 07:44:20;;;;;;;0.73;0.73;;;13.50;99.10;;;;;;6259528;28;20299;-67
2022/09/02 07:47:27;;;;;;;1.45;0.80;;;13.50;99.60;;;;;;6243366;28;20295;-69
2022/09/02 07:50:34;;;;;;;0.70;0.70;;;13.40;99.50;;;;;;6261237;28;20579;-69
2022/09/02 07:53:43;;;;;;;2.53;0.90;;;13.40;99.50;;;;;;6259425;28;20304;-68
2022/09/02 07:56:49;;;;;;;0.50;0.50;;;13.40;99.70;;;;;;6276392;28;20268;-69
2022/09/02 07:59:56;;;;;;;1.75;0.75;;;13.40;99.90;;;;;;6258548;28;20300;-69
2022/09/02 08:03:02;;;;;;;0.60;0.60;;;13.40;99.90;;;;;;6275366;28;20299;-68
2022/09/02 08:06:15;;;;;;;0.50;0.50;;;13.50;99.90;;;;;;6259506;28;20567;-68
2022/09/02 08:09:28;;;;;;;0.75;0.63;;;13.50;99.90;;;;;;6260184;28;20316;-69
2022/09/02 08:12:34;;;;;;;1.20;1.20;;;13.60;99.30;;;;;;6211346;28;20354;-68
2022/09/02 08:15:40;;;;;;;1.45;1.45;;;13.70;98.80;;;;;;6211642;28;20272;-68
2022/09/02 08:18:45;;;;;;;0.90;0.90;;;13.80;98.80;;;;;;6211028;28;20391;-68
2022/09/02 08:21:50;;;;;;;1.00;1.00;;;13.90;98.90;;;;;;6211546;28;20292;-68
2022/09/02 08:24:57;;;;;;;0.90;0.90;;;14.00;98.80;;;;;;6210569;28;20309;-69
2022/09/02 08:28:03;;;;;;;1.00;1.00;;;14.00;98.90;;;;;;6211416;28;20296;-69
2022/09/02 08:31:09;;;;;;;0.93;0.60;;;13.90;98.40;;;;;;6211793;28;20273;-69
2022/09/02 08:34:14;;;;;;;0.90;0.80;;;13.90;98.40;;;;;;6211219;28;20596;-69
2022/09/02 08:37:20;;;;;;;0.73;0.73;;;13.90;98.30;;;;;;6211333;28;20293;-69
2022/09/02 08:40:33;;;;;;;0.73;0.73;;;13.90;98.50;;;;;;6211877;28;20293;-69
2022/09/02 08:43:41;;;;;;;0.70;0.70;;;14.00;98.70;;;;;;6211408;28;20296;-69
2022/09/02 08:46:47;;;;;;;0.90;0.90;;;13.90;98.80;;;;;;6212095;28;20280;-69
2022/09/02 08:49:57;;;;;;;1.35;0.90;;;14.00;99.60;;;;;;6215799;28;20300;-69
2022/09/02 08:53:08;;;;;;;0.60;0.60;;;13.90;98.20;;;;;;6215857;28;20301;-69
2022/09/02 08:56:17;;;;;;;0.80;0.80;;;13.90;98.30;;;;;;6216187;28;20273;-69
2022/09/02 08:59:26;;;;;;;0.65;0.65;;;13.90;97.70;;;;;;6215694;28;20309;-69
2022/09/02 09:02:41;;;;;;;0.60;0.60;;;13.80;97.40;;;;;;6215405;28;20297;-68
2022/09/02 09:06:00;;;;;;;0.80;0.68;;;13.70;97.40;;;;;;6215432;28;20274;-67
2022/09/02 09:09:14;;;;;;;1.02;1.02;;;13.70;97.00;;;;;;6224082;28;20406;-68
2022/09/02 09:12:32;;;;;;;0.85;0.85;;;13.80;97.30;;;;;;6263235;28;20292;-68
2022/09/02 09:15:44;;;;;;;1.10;0.90;;;13.80;97.10;;;;;;6264223;28;20268;-68
2022/09/02 09:18:59;;;;;;;0.98;0.98;;;14.00;97.30;;;;;;6263908;28;20296;-68
2022/09/02 09:22:05;;;;;;;1.10;0.60;;;14.00;96.90;;;;;;6263720;28;20292;-68
2022/09/02 09:25:15;;;;;;;0.60;0.60;;;14.10;96.20;;;;;;6264120;28;20272;-68
2022/09/02 09:28:22;;;;;;;0.63;0.63;;;14.20;96.30;;;;;;6263189;28;20484;-68
2022/09/02 09:31:31;;;;;;;0.73;0.73;;;14.20;96.20;;;;;;6264006;28;20275;-69
2022/09/02 09:35:06;;;;;;;1.52;0.73;;;14.20;96.00;;;;;;6263867;28;20303;-68
2022/09/02 09:38:15;;;;;;;0.80;0.80;;;14.20;96.20;;;;;;6221564;28;20295;-67
2022/09/02 09:41:23;;;;;;;1.00;1.00;;;14.20;96.40;;;;;;6263808;28;20291;-68
2022/09/02 09:44:45;;;;;;;0.77;0.77;;;14.20;96.50;;;;;;6263214;28;20587;-68
2022/09/02 09:48:18;;;;;;;1.00;1.00;;;14.20;96.60;;;;;;6263273;28;20301;-68
2022/09/02 09:51:24;;;;;;;0.70;0.70;;;14.30;95.90;;;;;;6263352;28;20341;-68
2022/09/02 09:54:29;;;;;;;0.80;0.80;;;14.40;95.50;;;;;;6263150;28;20296;-68
2022/09/02 09:57:35;;;;;;;0.80;0.80;;;14.40;95.70;;;;;;6262200;28;20588;-68
2022/09/02 10:00:43;;;;;;;0.63;0.63;;;14.60;95.30;;;;;;6263206;28;20350;-68
2022/09/02 10:03:52;;;;;;;0.52;0.52;;;14.70;95.00;;;;;;6262856;28;20303;-68
2022/09/02 10:06:58;;;;;;;0.85;0.80;;;14.90;95.10;;;;;;6261917;28;20539;-68
2022/09/02 10:10:18;;;;;;;1.33;0.90;;;14.90;95.30;;;;;;6262301;28;20290;-68
2022/09/02 10:13:26;;;;;;;1.65;0.73;;;14.80;95.00;;;;;;6262389;28;20304;-68
2022/09/02 10:16:51;;;;;;;0.70;0.70;;;14.70;95.60;;;;;;6262805;28;20456;-68
2022/09/02 10:20:03;;;;;;;3.55;0.88;;;14.70;96.60;;;;;;6261862;28;20280;-68
2022/09/02 10:23:21;;;;;;;0.60;0.60;;;14.70;97.30;;;;;;6262317;28;20300;-68
2022/09/02 10:26:34;;;;;;;1.08;0.88;;;14.70;97.00;;;;;;6262624;28;20288;-69
2022/09/02 10:29:52;;;;;;;0.88;0.88;;;14.50;97.60;;;;;;6262203;28;20300;-68
2022/09/02 10:33:16;;;;;;;0.85;0.85;;;14.30;98.20;;;;;;6262352;28;20308;-68
2022/09/02 10:36:28;;;;;;;0.98;0.98;;;14.20;98.90;;;;;;6263028;28;20268;-67
2022/09/02 10:39:53;;;;;;;0.50;0.50;;;14.20;99.00;;;;;;6262177;28;20315;-69
2022/09/02 10:43:05;;;;;;;0.50;0.50;;;14.30;98.90;;;;;;6261785;28;20296;-68
2022/09/02 10:46:21;;;;;;;1.83;0.75;;;14.30;98.70;;;;;;6260775;28;20324;-68
2022/09/02 10:49:59;;;;;;;3.03;0.88;;;14.50;98.60;;;;;;6261685;28;20311;-68
2022/09/02 10:53:40;;;;;;;0.95;0.95;;;14.50;98.40;;;;;;6261920;28;20299;-68
2022/09/02 10:56:49;;;;;;;0.80;0.80;;;14.60;98.40;;;;;;6262129;28;20268;-69
2022/09/02 11:00:00;;;;;;;2.10;0.80;;;14.60;98.00;;;;;;6260868;28;20279;-69
2022/09/02 11:03:13;;;;;;;0.40;0.40;;;14.70;97.90;;;;;;6261521;28;20296;-69
2022/09/02 11:06:24;;;;;;;0.70;0.70;;;14.80;97.70;;;;;;6261783;28;20276;-68
2022/09/02 11:09:47;;;;;;;0.60;0.60;;;14.90;98.20;;;;;;6260407;28;20590;-69
2022/09/02 11:13:00;;;;;;;0.82;0.82;;;15.00;96.90;;;;;;6261425;28;20308;-68
2022/09/02 11:16:13;;;;;;;0.50;0.50;;;15.00;95.70;;;;;;6262000;28;20271;-68
2022/09/02 11:19:23;;;;;;;0.63;0.63;;;14.90;96.50;;;;;;6261479;28;20300;-68
2022/09/02 11:22:38;;;;;;;0.57;0.57;;;14.90;97.70;;;;;;6260757;28;20481;-68
2022/09/02 11:25:52;;;;;;;1.38;0.70;;;14.90;97.70;;;;;;6261320;28;20272;-67
2022/09/02 11:29:03;;;;;;;1.00;0.60;;;14.80;97.30;;;;;;6260865;28;20291;-67
2022/09/02 11:32:17;;;;;;;0.40;0.40;;;14.80;97.30;;;;;;6260636;28;20280;-68
2022/09/02 11:35:26;;;;;;;0.60;0.60;;;15.00;97.30;;;;;;6261667;28;20264;-68
2022/09/02 11:38:37;;;;;;;0.80;0.80;;;15.00;95.40;;;;;;6260910;28;20324;-68
2022/09/02 11:42:18;;;;;;;2.42;0.70;;;15.10;95.90;;;;;;6261401;28;20272;-68
2022/09/02 11:45:40;;;;;;;0.60;0.60;;;15.00;97.70;;;;;;6259683;28;20280;-68
2022/09/02 11:49:08;;;;;;;2.47;0.70;;;14.60;99.20;;;;;;6260458;28;20583;-69
2022/09/02 11:52:30;;;;;;;0.43;0.43;;;14.30;99.90;;;;;;6260449;28;20311;-69
2022/09/02 11:55:41;;;;;;;0.85;0.60;;;14.20;99.90;;;;;;6261102;28;20367;-68
2022/09/02 11:58:51;;;;;;;1.10;0.50;;;14.30;99.90;;;;;;6242908;28;20295;-68
2022/09/02 12:01:57;;;;;;;0.47;0.47;;;14.30;99.90;;;;;;6260021;28;20292;-68
2022/09/02 12:05:45;;;;;;;0.50;0.50;;;14.20;99.90;;;;;;6261193;28;20271;-68
2022/09/02 12:09:10;;;;;;;0.50;0.50;;;14.20;99.90;;;;;;6260078;28;20319;-68
2022/09/02 12:13:06;;;;;;;2.20;2.20;;;14.10;99.90;;;;;;6258554;28;20292;-68
2022/09/02 12:16:43;;;;;;;0.80;0.80;;;14.10;99.90;;;;;;6260619;28;20583;-69
2022/09/02 12:19:49;;;;;;;0.60;0.60;;;14.20;99.90;;;;;;6260628;28;20295;-68
2022/09/02 12:22:55;;;;;;;0.60;0.60;;;14.30;99.90;;;;;;6264500;28;20315;-68
2022/09/02 12:26:05;;;;;;;0.50;0.50;;;14.30;99.90;;;;;;6265850;28;20275;-68
2022/09/02 12:29:31;;;;;;;0.80;0.80;;;14.40;99.90;;;;;;6265445;28;20303;-68
2022/09/02 12:33:08;;;;;;;0.50;0.50;;;14.40;99.10;;;;;;6247383;28;20293;-68
2022/09/02 12:36:47;;;;;;;0.73;0.50;;;14.40;98.70;;;;;;6265827;28;20272;-69
2022/09/02 12:39:55;;;;;;;0.50;0.50;;;14.50;98.30;;;;;;6265144;28;20295;-69
2022/09/02 12:43:05;;;;;;;0.70;0.50;;;14.70;98.80;;;;;;6264549;28;20307;-68
2022/09/02 12:46:21;;;;;;;0.60;0.60;;;14.80;97.80;;;;;;6265051;28;20273;-70
2022/09/02 12:49:48;;;;;;;0.50;0.50;;;15.00;97.40;;;;;;6264446;28;20301;-68
2022/09/02 12:53:30;;;;;;;0.52;0.52;;;14.70;98.40;;;;;;6264409;28;20304;-68
2022/09/02 12:56:35;;;;;;;2.05;0.75;;;14.40;99.90;;;;;;6265420;28;20264;-68
2022/09/02 12:59:41;;;;;;;0.70;0.70;;;14.30;99.90;;;;;;6264573;28;20299;-68
2022/09/02 13:03:03;;;;;;;0.50;0.50;;;14.10;99.90;;;;;;6264392;28;20291;-68
2022/09/02 13:06:17;;;;;;;2.83;0.52;;;14.10;99.90;;;;;;6263840;28;20277;-68
2022/09/02 13:09:42;;;;;;;0.50;0.50;;;14.10;99.90;;;;;;6264277;28;20320;-68
2022/09/02 13:13:19;;;;;;;0.40;0.40;;;14.00;99.90;;;;;;6239576;28;20296;-69
2022/09/02 13:16:38;;;;;;;0.80;0.80;;;14.00;99.90;;;;;;6239970;28;20560;-68
2022/09/02 13:20:33;;;;;;;0.70;0.70;;;14.10;99.60;;;;;;6239691;28;20308;-68
2022/09/02 13:24:22;;;;;;;0.60;0.60;;;14.10;99.00;;;;;;6239208;28;20316;-68
2022/09/02 13:28:13;;;;;;;0.57;0.57;;;14.10;98.80;;;;;;6239196;28;20296;-68
2022/09/02 13:31:20;;;;;;;0.47;0.47;;;14.20;99.50;;;;;;6227591;28;20277;-68
2022/09/02 13:34:26;;;;;;;0.68;0.68;;;14.40;99.90;;;;;;6238504;28;20319;-67
2022/09/02 13:37:35;;;;;;;0.70;0.70;;;14.30;99.90;;;;;;6238798;28;20292;-69
2022/09/02 13:40:44;;;;;;;0.82;0.82;;;14.40;99.90;;;;;;6239634;28;20576;-68
2022/09/02 13:44:06;;;;;;;0.90;0.80;;;14.60;99.90;;;;;;6238493;28;20300;-68
2022/09/02 13:47:16;;;;;;;0.50;0.50;;;14.70;98.70;;;;;;6238676;28;20293;-68
2022/09/02 13:50:23;;;;;;;0.80;0.80;;;14.80;98.00;;;;;;6239506;28;20278;-68
2022/09/02 13:53:34;;;;;;;1.13;0.70;;;14.90;98.20;;;;;;6238899;28;20304;-68
2022/09/02 13:57:04;;;;;;;0.60;0.60;;;15.00;98.20;;;;;;6238216;28;20269;-68
2022/09/02 14:00:16;;;;;;;0.70;0.70;;;14.90;97.40;;;;;;6238621;28;20273;-69
2022/09/02 14:03:22;;;;;;;0.80;0.70;;;14.90;98.60;;;;;;6238530;28;20292;-68
2022/09/02 14:06:32;;;;;;;1.10;1.10;;;15.00;98.80;;;;;;6238416;28;20272;-69
2022/09/02 14:09:40;;;;;;;0.85;0.85;;;14.90;99.70;;;;;;6239143;28;20470;-69
2022/09/02 14:12:45;;;;;;;0.60;0.60;;;14.90;99.00;;;;;;6262165;28;20303;-68
2022/09/02 14:15:51;;;;;;;0.60;0.60;;;14.90;98.90;;;;;;6263302;28;20272;-68
2022/09/02 14:19:13;;;;;;;0.80;0.80;;;14.90;98.10;;;;;;6262242;28;20296;-68
2022/09/02 14:22:28;;;;;;;1.17;1.10;;;15.00;99.10;;;;;;6262089;28;20377;-69
2022/09/02 14:25:38;;;;;;;0.65;0.65;;;14.90;97.40;;;;;;6263180;28;20292;-68
2022/09/02 14:28:51;;;;;;;1.00;1.00;;;15.00;98.60;;;;;;6262289;28;20390;-68
2022/09/02 14:32:13;;;;;;;0.70;0.70;;;14.80;96.60;;;;;;6262157;28;20273;-69
2022/09/02 14:35:23;;;;;;;1.40;1.40;;;14.60;97.20;;;;;;6262636;28;20280;-68
2022/09/02 14:38:32;;;;;;;0.70;0.70;;;14.70;97.70;;;;;;6261982;28;20296;-68
2022/09/02 14:41:46;;;;;;;0.60;0.60;;;14.70;97.20;;;;;;6262619;28;20379;-68
2022/09/02 14:44:51;;;;;;;0.70;0.70;;;14.70;97.90;;;;;;6260479;28;20304;-67
2022/09/02 14:48:00;;;;;;;0.65;0.60;;;14.70;97.20;;;;;;6261819;28;20304;-68
2022/09/02 14:51:07;;;;;;;1.35;1.30;;;14.60;98.00;;;;;;6261728;28;20285;-68
2022/09/02 14:54:13;;;;;;;1.10;1.10;;;14.60;97.40;;;;;;6261770;28;20311;-69
2022/09/02 14:57:26;;;;;;;1.75;1.35;;;14.50;98.40;;;;;;6261248;28;20483;-67
2022/09/02 15:00:32;;;;;;;2.58;0.70;;;14.50;98.10;;;;;;6260968;28;20304;-69
2022/09/02 15:03:38;;;;;;;0.85;0.80;;;14.50;98.60;;;;;;6261219;28;20292;-68
2022/09/02 15:06:44;;;;;;;0.60;0.60;;;14.50;99.80;;;;;;6261554;28;20291;-68
2022/09/02 15:09:51;;;;;;;0.77;0.60;;;14.50;99.90;;;;;;6260783;28;20311;-68
2022/09/02 15:12:58;;;;;;;1.00;0.60;;;14.50;99.60;;;;;;6261012;28;20603;-68
2022/09/02 15:16:04;;;;;;;0.40;0.40;;;14.40;99.10;;;;;;6261459;28;20280;-69
2022/09/02 15:19:10;;;;;;;0.68;0.68;;;14.60;99.10;;;;;;6260796;28;20295;-68
2022/09/02 15:22:17;;;;;;;0.73;0.73;;;14.70;98.80;;;;;;6260742;28;20291;-68
2022/09/02 15:25:22;;;;;;;3.92;0.90;;;14.80;99.60;;;;;;6261685;28;20319;-68
2022/09/02 15:28:29;;;;;;;1.23;0.60;;;14.90;99.30;;;;;;6260917;28;20295;-68
2022/09/02 15:31:35;;;;;;;0.60;0.60;;;15.00;99.70;;;;;;6261249;28;20276;-68
2022/09/02 15:34:40;;;;;;;0.93;0.65;;;14.90;98.60;;;;;;6260296;28;20598;-69
2022/09/02 15:37:49;;;;;;;2.53;2.35;;;14.90;99.10;;;;;;6260673;28;20304;-68
2022/09/02 15:40:55;;;;;;;3.13;2.92;;;14.70;99.00;;;;;;6261363;28;20272;-68
2022/09/02 15:44:06;;;;;;;0.90;0.90;;;14.70;99.20;;;;;;6260953;28;20295;-69
2022/09/02 15:47:12;;;;;;;1.70;1.70;;;14.50;98.30;;;;;;6260719;28;20292;-69
2022/09/02 15:50:18;;;;;;;1.30;1.30;;;14.40;98.70;;;;;;6261087;28;20272;-68
2022/09/02 15:53:24;;;;;;;1.00;1.00;;;14.40;99.80;;;;;;6255385;28;20300;-68
2022/09/02 15:56:32;;;;;;;0.90;0.90;;;14.40;99.30;;;;;;6211298;28;20277;-68
2022/09/02 15:59:38;;;;;;;0.60;0.60;;;14.50;99.90;;;;;;6211938;28;20300;-69
2022/09/02 16:02:44;;;;;;;1.30;1.30;;;14.40;99.80;;;;;;6211576;28;20385;-69
2022/09/02 16:05:49;;;;;;;1.38;1.38;;;14.40;99.90;;;;;;6211854;28;20292;-68
2022/09/02 16:08:55;;;;;;;1.40;1.40;;;14.60;99.90;;;;;;6211338;28;20304;-69
2022/09/02 16:12:00;;;;;;;1.70;1.70;;;14.50;99.90;;;;;;6212018;28;20276;-69
2022/09/02 16:15:10;;;;;;;2.03;1.80;;;14.40;99.90;;;;;;6235765;28;20273;-69
2022/09/02 16:18:15;;;;;;;1.00;1.00;;;14.40;99.90;;;;;;6235530;28;20296;-69
2022/09/02 16:21:22;;;;;;;1.20;1.20;;;14.50;99.90;;;;;;6218938;28;20268;-69
2022/09/02 16:24:28;;;;;;;3.30;3.20;;;14.50;99.80;;;;;;6235330;28;20296;-70
2022/09/02 16:27:52;;;;;;;2.65;2.65;;;14.40;99.90;;;;;;6235585;28;20304;-69
2022/09/02 16:30:59;;;;;;;1.90;1.20;;;14.30;99.40;;;;;;6236109;28;20274;-68
2022/09/02 16:34:06;;;;;;;5.90;5.40;;;14.30;99.90;;;;;;6235259;28;20587;-69
2022/09/02 16:37:12;;;;;;;3.80;3.60;;;14.40;99.90;;;;;;6235516;28;20292;-69